sensor_id;sensor_type;location;lat;lon;timestamp;temperature;humidity
38237;DHT22;50101;49.438;11.098;2023-05-29T00:00:50;20.40;57.90
38237;DHT22;50101;49.438;11.098;2023-05-29T00:03:18;20.50;58.00
38237;DHT22;50101;49.438;11.098;2023-05-29T00:05:45;20.50;58.00
38237;DHT22;50101;49.438;11.098;2023-05-29T00:08:12;20.40;57.90
38237;DHT22;50101;49.438;11.098;2023-05-29T00:10:38;20.50;58.00
38237;DHT22;50101;49.438;11.098;2023-05-29T00:13:05;20.50;58.00
38237;DHT22;50101;49.438;11.098;2023-05-29T00:15:33;20.50;58.60
38237;DHT22;50101;49.438;11.098;2023-05-29T00:18:00;20.40;57.90
38237;DHT22;50101;49.438;11.098;2023-05-29T00:20:28;20.50;57.90
38237;DHT22;50101;49.438;11.098;2023-05-29T00:22:54;20.50;57.90
38237;DHT22;50101;49.438;11.098;2023-05-29T00:25:21;20.50;57.90
38237;DHT22;50101;49.438;11.098;2023-05-29T00:27:48;20.40;57.80
38237;DHT22;50101;49.438;11.098;2023-05-29T00:30:15;20.50;57.90
38237;DHT22;50101;49.438;11.098;2023-05-29T00:32:42;20.50;57.90
38237;DHT22;50101;49.438;11.098;2023-05-29T00:35:09;20.50;57.90
38237;DHT22;50101;49.438;11.098;2023-05-29T00:37:36;20.50;57.90
38237;DHT22;50101;49.438;11.098;2023-05-29T00:40:03;20.50;57.90
38237;DHT22;50101;49.438;11.098;2023-05-29T00:42:30;20.50;57.90
38237;DHT22;50101;49.438;11.098;2023-05-29T00:44:57;20.50;57.90
38237;DHT22;50101;49.438;11.098;2023-05-29T00:47:24;20.50;57.90
38237;DHT22;50101;49.438;11.098;2023-05-29T00:49:52;20.50;57.90
38237;DHT22;50101;49.438;11.098;2023-05-29T00:52:19;20.50;58.00
38237;DHT22;50101;49.438;11.098;2023-05-29T00:54:47;20.50;57.80
38237;DHT22;50101;49.438;11.098;2023-05-29T00:57:14;20.50;57.90
38237;DHT22;50101;49.438;11.098;2023-05-29T00:59:44;20.50;57.80
38237;DHT22;50101;49.438;11.098;2023-05-29T01:02:12;20.50;57.90
38237;DHT22;50101;49.438;11.098;2023-05-29T01:04:41;20.50;57.90
38237;DHT22;50101;49.438;11.098;2023-05-29T01:07:08;20.50;57.80
38237;DHT22;50101;49.438;11.098;2023-05-29T01:09:36;20.50;57.90
38237;DHT22;50101;49.438;11.098;2023-05-29T01:12:25;20.50;57.90
38237;DHT22;50101;49.438;11.098;2023-05-29T01:15:20;20.50;57.80
38237;DHT22;50101;49.438;11.098;2023-05-29T01:17:54;20.40;57.80
38237;DHT22;50101;49.438;11.098;2023-05-29T01:23:36;20.40;57.70
38237;DHT22;50101;49.438;11.098;2023-05-29T01:26:46;20.50;57.90
38237;DHT22;50101;49.438;11.098;2023-05-29T01:29:15;20.50;57.80
38237;DHT22;50101;49.438;11.098;2023-05-29T01:31:42;20.40;57.70
38237;DHT22;50101;49.438;11.098;2023-05-29T01:34:10;20.50;57.90
38237;DHT22;50101;49.438;11.098;2023-05-29T01:36:37;20.50;57.90
38237;DHT22;50101;49.438;11.098;2023-05-29T01:39:04;20.50;57.80
38237;DHT22;50101;49.438;11.098;2023-05-29T01:41:31;20.50;57.80
38237;DHT22;50101;49.438;11.098;2023-05-29T01:44:00;20.50;57.70
38237;DHT22;50101;49.438;11.098;2023-05-29T01:46:27;20.50;57.80
38237;DHT22;50101;49.438;11.098;2023-05-29T01:48:54;20.40;57.60
38237;DHT22;50101;49.438;11.098;2023-05-29T01:51:22;20.40;57.70
38237;DHT22;50101;49.438;11.098;2023-05-29T01:53:49;20.40;57.70
38237;DHT22;50101;49.438;11.098;2023-05-29T01:56:16;20.40;57.70
38237;DHT22;50101;49.438;11.098;2023-05-29T01:58:43;20.40;57.60
38237;DHT22;50101;49.438;11.098;2023-05-29T02:01:11;20.40;57.60
38237;DHT22;50101;49.438;11.098;2023-05-29T02:03:38;20.40;57.60
38237;DHT22;50101;49.438;11.098;2023-05-29T02:06:05;20.40;57.70
38237;DHT22;50101;49.438;11.098;2023-05-29T02:08:33;20.40;57.70
38237;DHT22;50101;49.438;11.098;2023-05-29T02:10:59;20.40;57.70
38237;DHT22;50101;49.438;11.098;2023-05-29T02:13:26;20.40;57.60
38237;DHT22;50101;49.438;11.098;2023-05-29T02:15:53;20.40;57.50
38237;DHT22;50101;49.438;11.098;2023-05-29T02:18:20;20.40;57.60
38237;DHT22;50101;49.438;11.098;2023-05-29T02:20:46;20.40;57.50
38237;DHT22;50101;49.438;11.098;2023-05-29T02:23:13;20.40;57.50
38237;DHT22;50101;49.438;11.098;2023-05-29T02:25:42;20.40;57.50
38237;DHT22;50101;49.438;11.098;2023-05-29T02:28:09;20.40;57.50
38237;DHT22;50101;49.438;11.098;2023-05-29T02:30:35;20.40;57.50
38237;DHT22;50101;49.438;11.098;2023-05-29T02:33:03;20.40;57.50
38237;DHT22;50101;49.438;11.098;2023-05-29T02:35:30;20.40;57.50
38237;DHT22;50101;49.438;11.098;2023-05-29T02:37:56;20.40;57.40
38237;DHT22;50101;49.438;11.098;2023-05-29T02:40:23;20.40;57.50
38237;DHT22;50101;49.438;11.098;2023-05-29T02:42:50;20.40;57.40
38237;DHT22;50101;49.438;11.098;2023-05-29T02:45:17;20.40;57.40
38237;DHT22;50101;49.438;11.098;2023-05-29T02:47:44;20.40;57.60
38237;DHT22;50101;49.438;11.098;2023-05-29T02:50:11;20.40;57.40
38237;DHT22;50101;49.438;11.098;2023-05-29T02:52:38;20.40;57.40
38237;DHT22;50101;49.438;11.098;2023-05-29T02:55:04;20.40;57.40
38237;DHT22;50101;49.438;11.098;2023-05-29T02:57:32;20.40;57.40
38237;DHT22;50101;49.438;11.098;2023-05-29T02:59:59;20.40;57.40
38237;DHT22;50101;49.438;11.098;2023-05-29T03:02:27;20.40;57.40
38237;DHT22;50101;49.438;11.098;2023-05-29T03:04:54;20.40;57.40
38237;DHT22;50101;49.438;11.098;2023-05-29T03:07:21;20.40;57.40
38237;DHT22;50101;49.438;11.098;2023-05-29T03:09:47;20.40;57.40
38237;DHT22;50101;49.438;11.098;2023-05-29T03:12:14;20.40;57.40
38237;DHT22;50101;49.438;11.098;2023-05-29T03:14:41;20.40;57.40
38237;DHT22;50101;49.438;11.098;2023-05-29T03:17:07;20.40;57.40
38237;DHT22;50101;49.438;11.098;2023-05-29T03:19:34;20.40;57.40
38237;DHT22;50101;49.438;11.098;2023-05-29T03:22:01;20.40;57.40
38237;DHT22;50101;49.438;11.098;2023-05-29T03:24:27;20.40;57.40
38237;DHT22;50101;49.438;11.098;2023-05-29T03:26:54;20.40;57.30
38237;DHT22;50101;49.438;11.098;2023-05-29T03:29:22;20.40;57.40
38237;DHT22;50101;49.438;11.098;2023-05-29T03:31:49;20.40;57.40
38237;DHT22;50101;49.438;11.098;2023-05-29T03:34:16;20.40;57.40
38237;DHT22;50101;49.438;11.098;2023-05-29T03:36:43;20.40;57.40
38237;DHT22;50101;49.438;11.098;2023-05-29T03:39:10;20.40;57.30
38237;DHT22;50101;49.438;11.098;2023-05-29T03:41:36;20.40;57.30
38237;DHT22;50101;49.438;11.098;2023-05-29T03:44:03;20.40;57.40
38237;DHT22;50101;49.438;11.098;2023-05-29T03:46:31;20.40;57.40
38237;DHT22;50101;49.438;11.098;2023-05-29T03:48:58;20.40;57.40
38237;DHT22;50101;49.438;11.098;2023-05-29T03:51:25;20.40;57.40
38237;DHT22;50101;49.438;11.098;2023-05-29T03:53:51;20.40;57.40
38237;DHT22;50101;49.438;11.098;2023-05-29T03:56:18;20.40;57.40
38237;DHT22;50101;49.438;11.098;2023-05-29T03:58:45;20.40;57.40
38237;DHT22;50101;49.438;11.098;2023-05-29T04:01:11;20.40;58.00
38237;DHT22;50101;49.438;11.098;2023-05-29T04:03:38;20.40;57.40
38237;DHT22;50101;49.438;11.098;2023-05-29T04:06:06;20.40;57.40
38237;DHT22;50101;49.438;11.098;2023-05-29T04:08:33;20.40;57.40
38237;DHT22;50101;49.438;11.098;2023-05-29T04:10:59;20.40;57.40
38237;DHT22;50101;49.438;11.098;2023-05-29T04:13:27;20.40;57.40
38237;DHT22;50101;49.438;11.098;2023-05-29T04:15:54;20.40;57.40
38237;DHT22;50101;49.438;11.098;2023-05-29T04:18:21;20.40;57.40
38237;DHT22;50101;49.438;11.098;2023-05-29T04:20:49;20.40;57.40
38237;DHT22;50101;49.438;11.098;2023-05-29T04:23:16;20.40;57.40
38237;DHT22;50101;49.438;11.098;2023-05-29T04:25:43;20.40;57.40
38237;DHT22;50101;49.438;11.098;2023-05-29T04:28:10;20.40;57.40
38237;DHT22;50101;49.438;11.098;2023-05-29T04:30:38;20.40;57.40
38237;DHT22;50101;49.438;11.098;2023-05-29T04:33:05;20.40;57.40
38237;DHT22;50101;49.438;11.098;2023-05-29T04:35:32;20.40;57.30
38237;DHT22;50101;49.438;11.098;2023-05-29T04:37:59;20.40;57.40
38237;DHT22;50101;49.438;11.098;2023-05-29T04:40:26;20.30;57.30
38237;DHT22;50101;49.438;11.098;2023-05-29T04:42:53;20.40;57.40
38237;DHT22;50101;49.438;11.098;2023-05-29T04:45:20;20.40;57.40
38237;DHT22;50101;49.438;11.098;2023-05-29T04:47:47;20.40;57.40
38237;DHT22;50101;49.438;11.098;2023-05-29T04:50:15;20.40;57.40
38237;DHT22;50101;49.438;11.098;2023-05-29T04:52:43;20.40;57.50
38237;DHT22;50101;49.438;11.098;2023-05-29T04:55:10;20.40;57.40
38237;DHT22;50101;49.438;11.098;2023-05-29T04:57:37;20.40;57.40
38237;DHT22;50101;49.438;11.098;2023-05-29T05:00:04;20.40;57.40
38237;DHT22;50101;49.438;11.098;2023-05-29T05:02:36;20.40;57.40
38237;DHT22;50101;49.438;11.098;2023-05-29T05:05:03;20.40;57.40
38237;DHT22;50101;49.438;11.098;2023-05-29T05:07:30;20.40;57.40
38237;DHT22;50101;49.438;11.098;2023-05-29T05:09:57;20.40;57.50
38237;DHT22;50101;49.438;11.098;2023-05-29T05:12:23;20.40;57.40
38237;DHT22;50101;49.438;11.098;2023-05-29T05:14:50;20.40;57.40
38237;DHT22;50101;49.438;11.098;2023-05-29T05:17:17;20.40;57.40
38237;DHT22;50101;49.438;11.098;2023-05-29T05:19:43;20.40;57.40
38237;DHT22;50101;49.438;11.098;2023-05-29T05:22:10;20.40;57.40
38237;DHT22;50101;49.438;11.098;2023-05-29T05:24:37;20.30;57.30
38237;DHT22;50101;49.438;11.098;2023-05-29T05:27:04;20.40;57.40
38237;DHT22;50101;49.438;11.098;2023-05-29T05:29:31;20.40;57.40
38237;DHT22;50101;49.438;11.098;2023-05-29T05:31:58;20.40;57.40
38237;DHT22;50101;49.438;11.098;2023-05-29T05:34:25;20.40;57.40
38237;DHT22;50101;49.438;11.098;2023-05-29T05:36:51;20.30;57.40
38237;DHT22;50101;49.438;11.098;2023-05-29T05:39:18;20.40;57.50
38237;DHT22;50101;49.438;11.098;2023-05-29T05:41:45;20.40;57.40
38237;DHT22;50101;49.438;11.098;2023-05-29T05:44:12;20.30;57.40
38237;DHT22;50101;49.438;11.098;2023-05-29T05:46:39;20.40;57.40
38237;DHT22;50101;49.438;11.098;2023-05-29T05:49:06;20.30;57.40
38237;DHT22;50101;49.438;11.098;2023-05-29T05:51:32;20.40;57.50
38237;DHT22;50101;49.438;11.098;2023-05-29T05:53:59;20.40;57.40
38237;DHT22;50101;49.438;11.098;2023-05-29T05:56:26;20.40;57.50
38237;DHT22;50101;49.438;11.098;2023-05-29T05:58:53;20.30;57.30
38237;DHT22;50101;49.438;11.098;2023-05-29T06:01:19;20.40;57.40
38237;DHT22;50101;49.438;11.098;2023-05-29T06:03:46;20.30;57.40
38237;DHT22;50101;49.438;11.098;2023-05-29T06:06:13;20.30;57.40
38237;DHT22;50101;49.438;11.098;2023-05-29T06:08:40;20.40;57.50
38237;DHT22;50101;49.438;11.098;2023-05-29T06:11:08;20.40;57.50
38237;DHT22;50101;49.438;11.098;2023-05-29T06:13:34;20.30;57.40
38237;DHT22;50101;49.438;11.098;2023-05-29T06:16:01;20.40;57.50
38237;DHT22;50101;49.438;11.098;2023-05-29T06:18:28;20.40;57.50
38237;DHT22;50101;49.438;11.098;2023-05-29T06:20:55;20.30;57.40
38237;DHT22;50101;49.438;11.098;2023-05-29T06:23:24;20.40;57.50
38237;DHT22;50101;49.438;11.098;2023-05-29T06:25:50;20.40;57.50
38237;DHT22;50101;49.438;11.098;2023-05-29T06:28:17;20.40;57.50
38237;DHT22;50101;49.438;11.098;2023-05-29T06:30:44;20.40;57.40
38237;DHT22;50101;49.438;11.098;2023-05-29T06:33:12;20.40;57.40
38237;DHT22;50101;49.438;11.098;2023-05-29T06:35:38;20.40;57.50
38237;DHT22;50101;49.438;11.098;2023-05-29T06:38:06;20.40;57.50
38237;DHT22;50101;49.438;11.098;2023-05-29T06:40:32;20.40;57.40
38237;DHT22;50101;49.438;11.098;2023-05-29T06:43:00;20.40;57.50
38237;DHT22;50101;49.438;11.098;2023-05-29T06:45:27;20.40;57.50
38237;DHT22;50101;49.438;11.098;2023-05-29T06:47:53;20.40;57.40
38237;DHT22;50101;49.438;11.098;2023-05-29T06:50:22;20.40;57.50
38237;DHT22;50101;49.438;11.098;2023-05-29T06:52:49;20.40;57.50
38237;DHT22;50101;49.438;11.098;2023-05-29T06:55:15;20.30;57.40
38237;DHT22;50101;49.438;11.098;2023-05-29T06:57:43;20.40;57.50
38237;DHT22;50101;49.438;11.098;2023-05-29T07:00:10;20.40;57.50
38237;DHT22;50101;49.438;11.098;2023-05-29T07:02:37;20.40;57.50
38237;DHT22;50101;49.438;11.098;2023-05-29T07:05:04;20.40;57.50
38237;DHT22;50101;49.438;11.098;2023-05-29T07:07:32;20.40;57.60
38237;DHT22;50101;49.438;11.098;2023-05-29T07:09:58;20.40;57.50
38237;DHT22;50101;49.438;11.098;2023-05-29T07:12:26;20.30;57.50
38237;DHT22;50101;49.438;11.098;2023-05-29T07:14:53;20.40;57.60
38237;DHT22;50101;49.438;11.098;2023-05-29T07:17:19;20.40;57.60
38237;DHT22;50101;49.438;11.098;2023-05-29T07:19:46;20.30;57.50
38237;DHT22;50101;49.438;11.098;2023-05-29T07:22:16;20.40;57.60
38237;DHT22;50101;49.438;11.098;2023-05-29T07:24:42;20.40;57.60
38237;DHT22;50101;49.438;11.098;2023-05-29T07:27:09;20.40;57.60
38237;DHT22;50101;49.438;11.098;2023-05-29T07:29:36;20.40;57.50
38237;DHT22;50101;49.438;11.098;2023-05-29T07:32:03;20.40;57.60
38237;DHT22;50101;49.438;11.098;2023-05-29T07:34:29;20.40;57.60
38237;DHT22;50101;49.438;11.098;2023-05-29T07:37:04;20.40;57.60
38237;DHT22;50101;49.438;11.098;2023-05-29T07:39:33;20.30;57.50
38237;DHT22;50101;49.438;11.098;2023-05-29T07:42:00;20.30;57.60
38237;DHT22;50101;49.438;11.098;2023-05-29T07:44:30;20.40;57.60
38237;DHT22;50101;49.438;11.098;2023-05-29T07:46:56;20.40;57.60
38237;DHT22;50101;49.438;11.098;2023-05-29T07:49:23;20.40;57.60
38237;DHT22;50101;49.438;11.098;2023-05-29T07:51:51;20.30;57.60
38237;DHT22;50101;49.438;11.098;2023-05-29T07:54:17;20.40;57.60
38237;DHT22;50101;49.438;11.098;2023-05-29T07:56:47;20.40;57.70
38237;DHT22;50101;49.438;11.098;2023-05-29T07:59:13;20.40;57.60
38237;DHT22;50101;49.438;11.098;2023-05-29T08:01:40;20.40;57.70
38237;DHT22;50101;49.438;11.098;2023-05-29T08:04:07;20.30;57.60
38237;DHT22;50101;49.438;11.098;2023-05-29T08:06:34;20.40;57.70
38237;DHT22;50101;49.438;11.098;2023-05-29T08:09:01;20.30;57.60
38237;DHT22;50101;49.438;11.098;2023-05-29T08:11:28;20.40;57.70
38237;DHT22;50101;49.438;11.098;2023-05-29T08:13:55;20.30;57.60
38237;DHT22;50101;49.438;11.098;2023-05-29T08:16:22;20.40;57.70
38237;DHT22;50101;49.438;11.098;2023-05-29T08:18:49;20.30;57.60
38237;DHT22;50101;49.438;11.098;2023-05-29T08:21:16;20.40;57.70
38237;DHT22;50101;49.438;11.098;2023-05-29T08:23:42;20.40;57.70
38237;DHT22;50101;49.438;11.098;2023-05-29T08:26:09;20.40;57.70
38237;DHT22;50101;49.438;11.098;2023-05-29T08:28:36;20.30;57.60
38237;DHT22;50101;49.438;11.098;2023-05-29T08:31:05;20.30;57.60
38237;DHT22;50101;49.438;11.098;2023-05-29T08:33:32;20.30;57.60
38237;DHT22;50101;49.438;11.098;2023-05-29T08:35:59;20.30;57.60
38237;DHT22;50101;49.438;11.098;2023-05-29T08:38:26;20.30;57.60
38237;DHT22;50101;49.438;11.098;2023-05-29T08:40:54;20.30;57.60
38237;DHT22;50101;49.438;11.098;2023-05-29T08:43:23;20.40;57.70
38237;DHT22;50101;49.438;11.098;2023-05-29T08:45:54;20.40;57.70
38237;DHT22;50101;49.438;11.098;2023-05-29T08:48:24;20.30;57.60
38237;DHT22;50101;49.438;11.098;2023-05-29T08:50:54;20.40;57.70
38237;DHT22;50101;49.438;11.098;2023-05-29T08:53:22;20.40;57.70
38237;DHT22;50101;49.438;11.098;2023-05-29T08:55:50;20.40;57.70
38237;DHT22;50101;49.438;11.098;2023-05-29T08:58:19;20.40;57.70
38237;DHT22;50101;49.438;11.098;2023-05-29T09:00:48;20.40;57.70
38237;DHT22;50101;49.438;11.098;2023-05-29T09:03:16;20.30;57.60
38237;DHT22;50101;49.438;11.098;2023-05-29T09:05:44;20.30;57.60
38237;DHT22;50101;49.438;11.098;2023-05-29T09:08:12;20.40;57.60
38237;DHT22;50101;49.438;11.098;2023-05-29T09:10:41;20.30;57.60
38237;DHT22;50101;49.438;11.098;2023-05-29T09:13:08;20.40;57.70
38237;DHT22;50101;49.438;11.098;2023-05-29T09:15:36;20.40;57.70
38237;DHT22;50101;49.438;11.098;2023-05-29T09:18:05;20.30;57.60
38237;DHT22;50101;49.438;11.098;2023-05-29T09:20:32;20.40;57.60
38237;DHT22;50101;49.438;11.098;2023-05-29T09:23:08;20.40;57.70
38237;DHT22;50101;49.438;11.098;2023-05-29T09:25:42;20.30;57.60
38237;DHT22;50101;49.438;11.098;2023-05-29T09:28:12;20.40;57.60
38237;DHT22;50101;49.438;11.098;2023-05-29T09:30:40;20.40;57.70
38237;DHT22;50101;49.438;11.098;2023-05-29T09:33:08;20.40;57.60
38237;DHT22;50101;49.438;11.098;2023-05-29T09:38:03;20.30;57.60
38237;DHT22;50101;49.438;11.098;2023-05-29T09:40:32;20.40;57.60
38237;DHT22;50101;49.438;11.098;2023-05-29T09:43:18;20.40;57.60
38237;DHT22;50101;49.438;11.098;2023-05-29T09:45:49;20.40;57.60
38237;DHT22;50101;49.438;11.098;2023-05-29T09:48:23;20.40;57.60
38237;DHT22;50101;49.438;11.098;2023-05-29T09:50:50;20.40;57.60
38237;DHT22;50101;49.438;11.098;2023-05-29T09:53:19;20.40;57.60
38237;DHT22;50101;49.438;11.098;2023-05-29T09:55:47;20.40;57.60
38237;DHT22;50101;49.438;11.098;2023-05-29T09:58:14;20.40;57.60
38237;DHT22;50101;49.438;11.098;2023-05-29T10:00:42;20.40;57.60
38237;DHT22;50101;49.438;11.098;2023-05-29T10:03:12;20.40;57.60
38237;DHT22;50101;49.438;11.098;2023-05-29T10:05:40;20.40;57.60
38237;DHT22;50101;49.438;11.098;2023-05-29T10:08:17;20.40;57.60
38237;DHT22;50101;49.438;11.098;2023-05-29T10:10:59;20.40;57.60
38237;DHT22;50101;49.438;11.098;2023-05-29T10:13:38;20.40;57.60
38237;DHT22;50101;49.438;11.098;2023-05-29T10:16:08;20.40;57.60
38237;DHT22;50101;49.438;11.098;2023-05-29T10:18:38;20.40;57.60
38237;DHT22;50101;49.438;11.098;2023-05-29T10:21:11;20.40;57.60
38237;DHT22;50101;49.438;11.098;2023-05-29T10:23:40;20.40;57.50
38237;DHT22;50101;49.438;11.098;2023-05-29T10:26:19;20.40;57.60
38237;DHT22;50101;49.438;11.098;2023-05-29T10:34:57;20.40;57.50
38237;DHT22;50101;49.438;11.098;2023-05-29T10:37:41;20.40;57.50
38237;DHT22;50101;49.438;11.098;2023-05-29T10:40:10;20.40;57.50
38237;DHT22;50101;49.438;11.098;2023-05-29T10:42:41;20.40;57.50
38237;DHT22;50101;49.438;11.098;2023-05-29T10:50:46;20.40;57.50
38237;DHT22;50101;49.438;11.098;2023-05-29T10:53:17;20.40;57.50
38237;DHT22;50101;49.438;11.098;2023-05-29T10:55:50;20.40;57.50
38237;DHT22;50101;49.438;11.098;2023-05-29T10:58:24;20.40;57.50
38237;DHT22;50101;49.438;11.098;2023-05-29T11:00:53;20.40;57.50
38237;DHT22;50101;49.438;11.098;2023-05-29T11:03:31;20.40;57.50
38237;DHT22;50101;49.438;11.098;2023-05-29T11:06:06;20.40;57.50
38237;DHT22;50101;49.438;11.098;2023-05-29T11:08:45;20.40;57.50
38237;DHT22;50101;49.438;11.098;2023-05-29T11:11:13;20.40;57.50
38237;DHT22;50101;49.438;11.098;2023-05-29T11:13:41;20.40;57.50
38237;DHT22;50101;49.438;11.098;2023-05-29T11:16:19;20.40;57.50
38237;DHT22;50101;49.438;11.098;2023-05-29T11:18:49;20.40;57.50
38237;DHT22;50101;49.438;11.098;2023-05-29T11:24:01;20.40;57.50
38237;DHT22;50101;49.438;11.098;2023-05-29T11:26:36;20.40;57.50
38237;DHT22;50101;49.438;11.098;2023-05-29T11:29:04;20.40;57.50
38237;DHT22;50101;49.438;11.098;2023-05-29T11:31:33;20.40;57.50
38237;DHT22;50101;49.438;11.098;2023-05-29T11:34:02;20.40;57.50
38237;DHT22;50101;49.438;11.098;2023-05-29T11:36:32;20.40;57.50
38237;DHT22;50101;49.438;11.098;2023-05-29T11:39:00;20.40;57.50
38237;DHT22;50101;49.438;11.098;2023-05-29T11:41:27;20.40;57.50
38237;DHT22;50101;49.438;11.098;2023-05-29T11:44:02;20.40;57.50
38237;DHT22;50101;49.438;11.098;2023-05-29T11:46:29;20.40;57.50
38237;DHT22;50101;49.438;11.098;2023-05-29T11:49:01;20.40;57.50
38237;DHT22;50101;49.438;11.098;2023-05-29T11:51:28;20.40;57.50
38237;DHT22;50101;49.438;11.098;2023-05-29T11:53:55;20.40;57.50
38237;DHT22;50101;49.438;11.098;2023-05-29T11:56:26;20.40;57.60
38237;DHT22;50101;49.438;11.098;2023-05-29T11:58:54;20.40;57.50
38237;DHT22;50101;49.438;11.098;2023-05-29T12:01:24;20.40;57.50
38237;DHT22;50101;49.438;11.098;2023-05-29T12:03:52;20.40;57.50
38237;DHT22;50101;49.438;11.098;2023-05-29T12:06:31;20.40;57.60
38237;DHT22;50101;49.438;11.098;2023-05-29T12:08:59;20.40;57.50
38237;DHT22;50101;49.438;11.098;2023-05-29T12:11:27;20.40;57.50
38237;DHT22;50101;49.438;11.098;2023-05-29T12:13:58;20.40;57.50
38237;DHT22;50101;49.438;11.098;2023-05-29T12:16:33;20.40;57.60
38237;DHT22;50101;49.438;11.098;2023-05-29T12:19:00;20.40;57.60
38237;DHT22;50101;49.438;11.098;2023-05-29T12:21:27;20.40;57.60
38237;DHT22;50101;49.438;11.098;2023-05-29T12:23:54;20.40;57.60
38237;DHT22;50101;49.438;11.098;2023-05-29T12:26:36;20.40;57.60
38237;DHT22;50101;49.438;11.098;2023-05-29T12:29:03;20.40;57.60
38237;DHT22;50101;49.438;11.098;2023-05-29T12:31:33;20.40;57.60
38237;DHT22;50101;49.438;11.098;2023-05-29T12:34:02;20.40;57.60
38237;DHT22;50101;49.438;11.098;2023-05-29T12:36:33;20.40;57.60
38237;DHT22;50101;49.438;11.098;2023-05-29T12:39:06;20.40;57.60
38237;DHT22;50101;49.438;11.098;2023-05-29T12:41:35;20.40;57.60
38237;DHT22;50101;49.438;11.098;2023-05-29T12:44:04;20.40;57.60
38237;DHT22;50101;49.438;11.098;2023-05-29T12:46:42;20.40;57.60
38237;DHT22;50101;49.438;11.098;2023-05-29T12:49:18;20.40;57.60
38237;DHT22;50101;49.438;11.098;2023-05-29T12:51:47;20.40;57.60
38237;DHT22;50101;49.438;11.098;2023-05-29T12:54:15;20.40;57.60
38237;DHT22;50101;49.438;11.098;2023-05-29T12:56:42;20.40;57.60
38237;DHT22;50101;49.438;11.098;2023-05-29T12:59:09;20.40;57.70
38237;DHT22;50101;49.438;11.098;2023-05-29T13:01:37;20.40;57.70
38237;DHT22;50101;49.438;11.098;2023-05-29T13:04:07;20.40;57.60
38237;DHT22;50101;49.438;11.098;2023-05-29T13:06:35;20.40;57.60
38237;DHT22;50101;49.438;11.098;2023-05-29T13:09:03;20.40;57.70
38237;DHT22;50101;49.438;11.098;2023-05-29T13:11:31;20.40;57.70
38237;DHT22;50101;49.438;11.098;2023-05-29T13:13:58;20.40;57.60
38237;DHT22;50101;49.438;11.098;2023-05-29T13:16:25;20.40;57.70
38237;DHT22;50101;49.438;11.098;2023-05-29T13:18:52;20.40;57.70
38237;DHT22;50101;49.438;11.098;2023-05-29T13:21:18;20.40;57.70
38237;DHT22;50101;49.438;11.098;2023-05-29T13:23:45;20.40;57.70
38237;DHT22;50101;49.438;11.098;2023-05-29T13:26:12;20.40;57.60
38237;DHT22;50101;49.438;11.098;2023-05-29T13:28:38;20.40;57.70
38237;DHT22;50101;49.438;11.098;2023-05-29T13:31:05;20.40;57.70
38237;DHT22;50101;49.438;11.098;2023-05-29T13:33:32;20.40;57.70
38237;DHT22;50101;49.438;11.098;2023-05-29T13:35:59;20.40;57.70
38237;DHT22;50101;49.438;11.098;2023-05-29T13:38:26;20.40;57.70
38237;DHT22;50101;49.438;11.098;2023-05-29T13:40:53;20.40;57.70
38237;DHT22;50101;49.438;11.098;2023-05-29T13:43:19;20.40;57.70
38237;DHT22;50101;49.438;11.098;2023-05-29T13:45:55;20.40;57.70
38237;DHT22;50101;49.438;11.098;2023-05-29T13:48:22;20.40;57.70
38237;DHT22;50101;49.438;11.098;2023-05-29T13:50:48;20.40;57.70
38237;DHT22;50101;49.438;11.098;2023-05-29T13:53:15;20.40;57.70
38237;DHT22;50101;49.438;11.098;2023-05-29T13:55:42;20.40;57.70
38237;DHT22;50101;49.438;11.098;2023-05-29T13:58:09;20.40;57.80
38237;DHT22;50101;49.438;11.098;2023-05-29T14:00:35;20.40;57.80
38237;DHT22;50101;49.438;11.098;2023-05-29T14:03:02;20.40;57.70
38237;DHT22;50101;49.438;11.098;2023-05-29T14:05:29;20.40;57.70
38237;DHT22;50101;49.438;11.098;2023-05-29T14:07:56;20.40;57.80
38237;DHT22;50101;49.438;11.098;2023-05-29T14:10:22;20.40;57.80
38237;DHT22;50101;49.438;11.098;2023-05-29T14:12:49;20.40;57.70
38237;DHT22;50101;49.438;11.098;2023-05-29T14:15:16;20.40;57.70
38237;DHT22;50101;49.438;11.098;2023-05-29T14:17:43;20.40;57.80
38237;DHT22;50101;49.438;11.098;2023-05-29T14:20:10;20.40;57.70
38237;DHT22;50101;49.438;11.098;2023-05-29T14:22:37;20.40;57.80
38237;DHT22;50101;49.438;11.098;2023-05-29T14:25:04;20.40;57.80
38237;DHT22;50101;49.438;11.098;2023-05-29T14:27:31;20.40;57.80
38237;DHT22;50101;49.438;11.098;2023-05-29T14:29:58;20.40;57.80
38237;DHT22;50101;49.438;11.098;2023-05-29T14:32:24;20.40;57.80
38237;DHT22;50101;49.438;11.098;2023-05-29T14:34:52;20.40;57.80
38237;DHT22;50101;49.438;11.098;2023-05-29T14:37:19;20.40;57.80
38237;DHT22;50101;49.438;11.098;2023-05-29T14:39:46;20.40;57.80
38237;DHT22;50101;49.438;11.098;2023-05-29T14:42:13;20.40;57.80
38237;DHT22;50101;49.438;11.098;2023-05-29T14:44:39;20.40;57.80
38237;DHT22;50101;49.438;11.098;2023-05-29T14:47:06;20.40;57.80
38237;DHT22;50101;49.438;11.098;2023-05-29T14:49:33;20.40;57.80
38237;DHT22;50101;49.438;11.098;2023-05-29T14:52:00;20.40;57.80
38237;DHT22;50101;49.438;11.098;2023-05-29T14:54:29;20.40;57.80
38237;DHT22;50101;49.438;11.098;2023-05-29T14:56:56;20.40;57.80
38237;DHT22;50101;49.438;11.098;2023-05-29T14:59:24;20.40;57.80
38237;DHT22;50101;49.438;11.098;2023-05-29T15:01:51;20.40;57.80
38237;DHT22;50101;49.438;11.098;2023-05-29T15:04:20;20.40;57.80
38237;DHT22;50101;49.438;11.098;2023-05-29T15:06:47;20.40;57.80
38237;DHT22;50101;49.438;11.098;2023-05-29T15:09:28;20.40;57.80
38237;DHT22;50101;49.438;11.098;2023-05-29T15:11:55;20.40;57.80
38237;DHT22;50101;49.438;11.098;2023-05-29T15:14:22;20.40;57.80
38237;DHT22;50101;49.438;11.098;2023-05-29T15:16:50;20.40;57.80
38237;DHT22;50101;49.438;11.098;2023-05-29T15:19:17;20.40;57.80
38237;DHT22;50101;49.438;11.098;2023-05-29T15:21:43;20.40;57.80
38237;DHT22;50101;49.438;11.098;2023-05-29T15:24:11;20.40;57.80
38237;DHT22;50101;49.438;11.098;2023-05-29T15:26:38;20.40;57.80
38237;DHT22;50101;49.438;11.098;2023-05-29T15:29:04;20.40;57.90
38237;DHT22;50101;49.438;11.098;2023-05-29T15:31:32;20.40;57.80
38237;DHT22;50101;49.438;11.098;2023-05-29T15:33:58;20.40;57.80
38237;DHT22;50101;49.438;11.098;2023-05-29T15:36:25;20.40;57.80
38237;DHT22;50101;49.438;11.098;2023-05-29T15:38:52;20.40;57.80
38237;DHT22;50101;49.438;11.098;2023-05-29T15:41:19;20.40;57.80